Time;durP1;ratioP1;P1;durP2;ratioP2;P2;SDS_P1;SDS_P2;PMS_P1;PMS_P2;Temp;Humidity;BMP_temperature;BMP_pressure;BME280_temperature;BME280_humidity;BME280_pressure;Samples;Min_cycle;Max_cycle;Signal;HPM_P1;HPM_P2
2021/09/29 00:00:20;;;;;;;32.72;24.92;;;410.20;2355.20;;;;;;5053975;28;20032;-76
2021/09/29 00:02:45;;;;;;;29.70;25.20;;;410.20;2355.20;;;;;;5052743;28;20029;-77
2021/09/29 00:05:11;;;;;;;35.05;26.70;;;410.30;2355.20;;;;;;5054145;28;20029;-77
2021/09/29 00:07:37;;;;;;;34.13;25.08;;;410.30;2355.20;;;;;;5054053;28;20119;-77
2021/09/29 00:10:05;;;;;;;34.50;26.35;;;410.30;2355.20;;;;;;5053939;28;20025;-77
2021/09/29 00:12:31;;;;;;;29.98;24.38;;;410.30;2355.20;;;;;;5054093;28;20017;-77
2021/09/29 00:14:57;;;;;;;28.98;22.67;;;410.30;2355.20;;;;;;5054541;28;20048;-77
2021/09/29 00:17:23;;;;;;;31.48;23.27;;;410.30;2355.20;;;;;;5057423;28;20811;-77
2021/09/29 00:19:48;;;;;;;29.50;21.98;;;410.30;2355.20;;;;;;5083368;28;20041;-76
2021/09/29 00:22:14;;;;;;;27.30;21.02;;;410.30;2355.20;;;;;;5079653;28;20029;-77
2021/09/29 00:24:40;;;;;;;30.20;23.95;;;410.30;2355.20;;;;;;5068594;28;20454;-76
2021/09/29 00:27:06;;;;;;;33.97;25.70;;;410.30;2355.20;;;;;;5070159;28;20026;-76
2021/09/29 00:29:31;;;;;;;30.08;24.20;;;410.30;2355.20;;;;;;5066523;28;20029;-77
2021/09/29 00:31:59;;;;;;;32.90;24.52;;;410.20;2355.20;;;;;;5056730;28;20066;-77
2021/09/29 00:34:36;;;;;;;30.48;22.70;;;410.20;2355.20;;;;;;5060942;28;20055;-76
2021/09/29 00:37:02;;;;;;;28.35;20.90;;;410.30;2355.20;;;;;;5042660;28;20492;-77
2021/09/29 00:39:28;;;;;;;28.25;21.90;;;410.30;2355.20;;;;;;5057984;28;20025;-76
2021/09/29 00:41:54;;;;;;;31.42;23.10;;;410.30;2355.20;;;;;;5052978;28;20029;-77
2021/09/29 00:44:20;;;;;;;31.85;25.02;;;410.30;2355.20;;;;;;5059155;28;20100;-77
2021/09/29 00:46:46;;;;;;;31.75;25.70;;;410.20;2355.20;;;;;;5072481;28;20119;-77
2021/09/29 00:49:12;;;;;;;34.45;24.23;;;410.30;2355.20;;;;;;5073543;28;20061;-77
2021/09/29 00:51:38;;;;;;;34.90;24.08;;;410.20;2355.20;;;;;;5061565;28;20075;-77
2021/09/29 00:54:05;;;;;;;27.67;22.75;;;410.20;2355.20;;;;;;5057239;28;20055;-77
2021/09/29 00:56:32;;;;;;;33.10;24.00;;;410.20;2355.20;;;;;;5057577;28;20502;-77
2021/09/29 00:58:58;;;;;;;28.85;21.48;;;410.10;2355.20;;;;;;5043149;28;20026;-76
2021/09/29 01:01:24;;;;;;;30.20;21.20;;;410.20;2355.20;;;;;;5055368;28;20021;-77
2021/09/29 01:03:51;;;;;;;29.42;22.05;;;410.10;2355.20;;;;;;5062555;28;20030;-77
2021/09/29 01:06:37;;;;;;;42.15;25.60;;;410.10;2355.20;;;;;;5058617;28;20032;-77
2021/09/29 01:09:44;;;;;;;38.38;23.15;;;409.90;2355.20;;;;;;5060960;28;20024;-77
2021/09/29 01:12:10;;;;;;;46.10;27.48;;;410.00;2355.20;;;;;;4998803;28;20408;-77
2021/09/29 01:14:52;;;;;;;41.38;28.88;;;410.00;2355.20;;;;;;4994646;28;20065;-77
2021/09/29 01:17:20;;;;;;;46.42;27.38;;;410.00;2355.20;;;;;;5005539;28;20521;-77
2021/09/29 01:20:14;;;;;;;102.40;33.67;;;410.00;2355.20;;;;;;5011741;28;20038;-77
2021/09/29 01:22:55;;;;;;;59.10;32.97;;;409.90;2355.20;;;;;;5011154;28;20445;-77
2021/09/29 01:25:48;;;;;;;65.60;35.45;;;409.90;2355.20;;;;;;4994266;28;20533;-77
2021/09/29 01:28:17;;;;;;;127.10;43.95;;;410.00;2355.20;;;;;;5011207;28;20080;-77
2021/09/29 01:30:43;;;;;;;77.18;39.90;;;410.00;2355.20;;;;;;5011139;28;20121;-77
2021/09/29 01:33:09;;;;;;;158.50;68.82;;;410.00;2355.20;;;;;;4993168;28;20030;-77
2021/09/29 01:35:36;;;;;;;103.57;53.40;;;410.00;2355.20;;;;;;4994713;28;20154;-77
2021/09/29 01:38:02;;;;;;;190.73;65.65;;;410.10;2355.20;;;;;;4994327;28;20010;-77
2021/09/29 01:40:28;;;;;;;189.77;71.93;;;410.00;2355.20;;;;;;4993811;28;20504;-78
2021/09/29 01:42:53;;;;;;;222.05;71.15;;;410.10;2355.20;;;;;;5031195;28;20031;-77
2021/09/29 01:45:19;;;;;;;142.23;64.82;;;410.10;2355.20;;;;;;5067967;28;20116;-77
2021/09/29 01:47:47;;;;;;;170.60;68.45;;;410.10;2355.20;;;;;;5052557;28;20029;-78
2021/09/29 01:50:13;;;;;;;122.00;64.15;;;410.20;2355.20;;;;;;5051051;28;20466;-77
2021/09/29 01:52:43;;;;;;;131.43;69.72;;;410.30;2355.20;;;;;;5050828;28;20056;-77
2021/09/29 01:55:16;;;;;;;118.88;62.85;;;410.50;2355.20;;;;;;5040693;28;20062;-78
2021/09/29 01:57:43;;;;;;;114.05;59.03;;;435.20;2355.20;;;;;;5051276;28;20039;-77
2021/09/29 02:00:10;;;;;;;119.07;61.78;;;435.40;2355.20;;;;;;5052320;28;20491;-78
2021/09/29 02:02:41;;;;;;;116.53;59.33;;;435.40;2355.20;;;;;;5052038;28;20427;-77
2021/09/29 02:05:07;;;;;;;116.80;58.85;;;435.50;2355.20;;;;;;5051005;28;20112;-77
2021/09/29 02:07:33;;;;;;;130.82;60.42;;;435.50;2355.20;;;;;;5052057;28;20480;-77
2021/09/29 02:09:59;;;;;;;100.85;54.72;;;435.50;2355.20;;;;;;5050505;28;20123;-77
2021/09/29 02:12:25;;;;;;;101.10;55.60;;;435.50;2355.20;;;;;;5049527;28;20541;-77
2021/09/29 02:14:51;;;;;;;91.05;50.15;;;435.70;2355.20;;;;;;5052382;28;20032;-77
2021/09/29 02:17:18;;;;;;;114.75;55.33;;;435.70;2355.20;;;;;;5050399;28;20741;-77
2021/09/29 02:19:44;;;;;;;77.82;47.45;;;435.60;2355.20;;;;;;5051855;28;20515;-80
2021/09/29 02:22:13;;;;;;;85.00;46.00;;;435.60;2355.20;;;;;;5049937;28;20598;-78
2021/09/29 02:24:39;;;;;;;76.28;45.58;;;435.60;2355.20;;;;;;5050094;28;20045;-78
2021/09/29 02:27:05;;;;;;;91.80;48.10;;;435.70;2355.20;;;;;;5050961;28;20036;-78
2021/09/29 02:29:30;;;;;;;87.78;46.92;;;435.60;2355.20;;;;;;5050498;28;20021;-78
2021/09/29 02:31:56;;;;;;;104.38;50.63;;;435.50;2355.20;;;;;;5050932;28;20021;-78
2021/09/29 02:34:22;;;;;;;79.97;48.50;;;435.70;2355.20;;;;;;5067021;28;20048;-78
2021/09/29 02:36:48;;;;;;;79.53;46.95;;;435.60;2355.20;;;;;;5051982;28;20372;-78
2021/09/29 02:39:13;;;;;;;80.82;45.95;;;435.70;2355.20;;;;;;5051560;28;20032;-78
2021/09/29 02:41:39;;;;;;;77.97;47.15;;;435.70;2355.20;;;;;;5050285;28;20078;-79
2021/09/29 02:44:11;;;;;;;78.63;46.53;;;435.70;2355.20;;;;;;5049783;28;20037;-78
2021/09/29 02:46:41;;;;;;;80.00;47.40;;;435.80;2355.20;;;;;;5067010;28;20060;-78
2021/09/29 02:49:08;;;;;;;78.30;46.85;;;435.80;2355.20;;;;;;5067455;28;20021;-77
2021/09/29 02:51:34;;;;;;;78.07;44.72;;;435.90;2355.20;;;;;;5051590;28;20031;-78
2021/09/29 02:53:59;;;;;;;93.15;48.80;;;435.90;2355.20;;;;;;5062527;28;20021;-78
2021/09/29 02:56:25;;;;;;;73.30;46.53;;;435.90;2355.20;;;;;;5049889;28;20033;-78
2021/09/29 02:58:52;;;;;;;72.65;44.17;;;435.90;2355.20;;;;;;5064093;28;20395;-78
2021/09/29 03:01:18;;;;;;;70.25;42.58;;;436.00;2355.20;;;;;;5068380;28;20467;-78
2021/09/29 03:03:44;;;;;;;71.43;42.13;;;436.00;2355.20;;;;;;5065205;28;20086;-78
2021/09/29 03:06:10;;;;;;;70.68;41.83;;;436.00;2355.20;;;;;;5066587;28;20036;-77
2021/09/29 03:08:36;;;;;;;68.70;42.65;;;436.10;2355.20;;;;;;5055336;28;20080;-77
2021/09/29 03:11:02;;;;;;;67.82;40.35;;;436.10;2355.20;;;;;;5050663;28;20033;-78
2021/09/29 03:13:28;;;;;;;83.40;47.40;;;460.80;2380.80;;;;;;5051281;28;20468;-78
2021/09/29 03:15:53;;;;;;;65.35;40.92;;;460.80;2380.80;;;;;;5051738;28;20033;-78
2021/09/29 03:18:19;;;;;;;60.30;39.38;;;460.80;2380.80;;;;;;5051414;28;20044;-79
2021/09/29 03:20:46;;;;;;;66.50;41.60;;;460.80;2380.80;;;;;;5050401;28;20407;-78
2021/09/29 03:23:12;;;;;;;72.22;45.22;;;460.80;2380.80;;;;;;5049936;28;20123;-78
2021/09/29 03:25:38;;;;;;;78.57;47.47;;;460.80;2380.80;;;;;;5060275;28;20503;-78
2021/09/29 03:28:05;;;;;;;89.80;55.78;;;460.80;2380.80;;;;;;5066033;28;20079;-78
2021/09/29 03:30:30;;;;;;;103.53;64.38;;;460.80;2380.80;;;;;;5053866;28;20480;-83
2021/09/29 03:32:56;;;;;;;98.05;60.17;;;460.80;2380.80;;;;;;5055425;28;20032;-81
2021/09/29 03:35:24;;;;;;;81.40;50.97;;;460.90;2380.80;;;;;;5058067;28;20039;-80
2021/09/29 03:37:50;;;;;;;83.15;51.28;;;460.90;2380.80;;;;;;5062423;28;20032;-81
2021/09/29 03:40:17;;;;;;;78.60;49.63;;;460.90;2380.80;;;;;;5058710;28;20037;-81
2021/09/29 03:42:43;;;;;;;99.57;60.35;;;461.00;2380.80;;;;;;5060619;28;20029;-81
2021/09/29 03:45:11;;;;;;;88.45;58.30;;;461.00;2380.80;;;;;;5073459;28;20116;-81
2021/09/29 03:47:38;;;;;;;77.03;50.03;;;460.90;2380.80;;;;;;5051766;28;20426;-77
2021/09/29 03:50:04;;;;;;;66.05;45.75;;;460.90;2380.80;;;;;;5064703;28;20025;-78
2021/09/29 03:52:30;;;;;;;66.15;43.17;;;460.90;2380.80;;;;;;5052793;28;20017;-78
2021/09/29 03:54:56;;;;;;;55.33;38.08;;;460.80;2380.80;;;;;;5057957;28;20495;-78
2021/09/29 03:57:21;;;;;;;56.90;39.72;;;460.80;2380.80;;;;;;5054099;28;20052;-78
2021/09/29 03:59:47;;;;;;;58.33;39.17;;;460.80;2380.80;;;;;;5066461;28;20041;-78
2021/09/29 04:02:13;;;;;;;55.65;38.88;;;460.80;2380.80;;;;;;5061538;28;20035;-78
2021/09/29 04:04:39;;;;;;;57.45;39.72;;;460.80;2380.80;;;;;;5060045;28;20040;-77
2021/09/29 04:07:05;;;;;;;59.97;39.92;;;460.80;2380.80;;;;;;5062642;28;20059;-78
2021/09/29 04:09:31;;;;;;;58.28;39.13;;;460.80;2380.80;;;;;;5062845;28;20032;-78
2021/09/29 04:11:57;;;;;;;64.18;44.00;;;460.80;2380.80;;;;;;5062498;28;20025;-77
2021/09/29 04:14:22;;;;;;;69.75;45.10;;;460.80;2380.80;;;;;;5053267;28;20071;-78
2021/09/29 04:16:48;;;;;;;64.35;43.10;;;460.80;2380.80;;;;;;5052694;28;20108;-77
2021/09/29 04:19:15;;;;;;;55.35;34.97;;;460.80;2380.80;;;;;;5052898;28;20044;-78
2021/09/29 04:21:41;;;;;;;46.60;33.03;;;460.80;2380.80;;;;;;5052266;28;20780;-77
2021/09/29 04:24:09;;;;;;;51.38;35.95;;;460.80;2380.80;;;;;;5048012;28;20052;-77
2021/09/29 04:26:37;;;;;;;53.88;37.58;;;460.80;2380.80;;;;;;5043702;28;20166;-78
2021/09/29 04:29:02;;;;;;;57.00;38.10;;;436.10;2355.20;;;;;;5052398;28;20028;-77
2021/09/29 04:31:28;;;;;;;60.10;40.45;;;436.10;2355.20;;;;;;5060552;28;20025;-77
2021/09/29 04:33:54;;;;;;;56.13;41.10;;;460.80;2380.80;;;;;;5056429;28;20021;-77
2021/09/29 04:36:20;;;;;;;60.35;39.05;;;436.10;2355.20;;;;;;5065016;28;20040;-78
2021/09/29 04:38:45;;;;;;;58.45;38.15;;;436.00;2355.20;;;;;;5080760;28;20038;-78
2021/09/29 04:41:11;;;;;;;54.83;38.03;;;436.00;2355.20;;;;;;5055116;28;20029;-78
2021/09/29 04:43:37;;;;;;;51.47;36.88;;;435.90;2355.20;;;;;;5052364;28;20079;-78
2021/09/29 04:46:03;;;;;;;49.72;34.70;;;435.90;2355.20;;;;;;5047482;28;20041;-77
2021/09/29 04:48:29;;;;;;;49.60;35.95;;;435.90;2355.20;;;;;;5058059;28;20021;-77
2021/09/29 04:50:54;;;;;;;44.17;31.10;;;435.90;2355.20;;;;;;5061610;28;20071;-77
2021/09/29 04:53:20;;;;;;;45.38;31.85;;;435.90;2355.20;;;;;;5066307;28;20029;-77
2021/09/29 04:55:46;;;;;;;46.13;32.47;;;435.80;2355.20;;;;;;5060090;28;20032;-78
2021/09/29 04:58:12;;;;;;;49.08;34.45;;;435.80;2355.20;;;;;;5063367;28;20058;-77
2021/09/29 05:00:38;;;;;;;45.55;33.78;;;435.70;2355.20;;;;;;5062361;28;20033;-77
2021/09/29 05:03:06;;;;;;;46.38;33.88;;;435.70;2355.20;;;;;;5052975;28;20044;-77
2021/09/29 05:05:34;;;;;;;48.33;29.88;;;435.70;2355.20;;;;;;5052857;28;20057;-77
2021/09/29 05:08:01;;;;;;;40.03;29.13;;;435.70;2355.20;;;;;;5051996;28;20036;-76
2021/09/29 05:10:48;;;;;;;37.58;28.50;;;435.70;2355.20;;;;;;5051886;28;20029;-76
2021/09/29 05:13:23;;;;;;;36.53;25.48;;;435.70;2355.20;;;;;;5052523;28;20468;-76
2021/09/29 05:15:48;;;;;;;30.08;20.83;;;435.70;2355.20;;;;;;5052118;28;20025;-76
2021/09/29 05:18:15;;;;;;;24.23;17.45;;;435.70;2355.20;;;;;;5052529;28;20036;-77
2021/09/29 05:20:40;;;;;;;17.52;12.93;;;435.70;2355.20;;;;;;5053942;28;20028;-76
2021/09/29 05:23:06;;;;;;;19.40;13.40;;;435.60;2355.20;;;;;;5053690;28;20111;-77
2021/09/29 05:25:32;;;;;;;16.50;11.63;;;435.70;2355.20;;;;;;5076258;28;20483;-76
2021/09/29 05:28:00;;;;;;;12.05;8.95;;;435.70;2355.20;;;;;;5069208;28;20036;-76
2021/09/29 05:30:25;;;;;;;13.07;9.73;;;435.70;2355.20;;;;;;5051210;28;20048;-76
2021/09/29 05:32:51;;;;;;;16.83;9.73;;;435.70;2355.20;;;;;;5051615;28;20526;-76
2021/09/29 05:35:17;;;;;;;11.32;8.13;;;435.70;2355.20;;;;;;5050382;28;20047;-76
2021/09/29 05:37:42;;;;;;;12.93;9.05;;;435.70;2355.20;;;;;;5053798;28;20026;-76
2021/09/29 05:40:09;;;;;;;16.13;10.55;;;435.70;2355.20;;;;;;5052463;28;20475;-77
2021/09/29 05:42:35;;;;;;;19.58;12.98;;;435.70;2355.20;;;;;;5054458;28;20128;-76
2021/09/29 05:45:00;;;;;;;23.70;15.40;;;435.70;2355.20;;;;;;5063458;28;20449;-76
2021/09/29 05:47:26;;;;;;;28.45;21.05;;;435.70;2355.20;;;;;;5046996;28;20026;-76
2021/09/29 05:49:52;;;;;;;36.30;27.75;;;435.70;2355.20;;;;;;5059157;28;20021;-76
2021/09/29 05:52:17;;;;;;;37.67;29.48;;;435.80;2355.20;;;;;;5053999;28;20028;-76
2021/09/29 05:54:43;;;;;;;44.22;33.50;;;435.70;2355.20;;;;;;5060386;28;20036;-76
2021/09/29 05:57:09;;;;;;;49.85;36.88;;;435.70;2355.20;;;;;;5048773;28;20498;-76
2021/09/29 05:59:35;;;;;;;51.75;37.53;;;435.70;2355.20;;;;;;5050983;28;20068;-76
2021/09/29 06:02:00;;;;;;;53.60;40.97;;;435.80;2355.20;;;;;;5054127;28;20051;-76
2021/09/29 06:04:26;;;;;;;61.35;46.03;;;435.80;2355.20;;;;;;5053045;28;20120;-76
2021/09/29 06:06:52;;;;;;;60.97;48.08;;;435.80;2355.20;;;;;;5051366;28;20155;-76
2021/09/29 06:09:19;;;;;;;60.95;47.33;;;435.70;2355.20;;;;;;5051758;28;20036;-76
2021/09/29 06:11:44;;;;;;;63.65;50.72;;;435.80;2355.20;;;;;;5050235;28;20028;-76
2021/09/29 06:14:10;;;;;;;60.00;45.97;;;435.90;2355.20;;;;;;5052314;28;20025;-76
2021/09/29 06:16:43;;;;;;;58.78;43.13;;;435.90;2355.20;;;;;;5052221;28;20033;-75
2021/09/29 06:19:10;;;;;;;49.35;38.58;;;435.90;2355.20;;;;;;5055510;28;20025;-76
2021/09/29 06:21:36;;;;;;;51.05;40.45;;;435.90;2355.20;;;;;;5056943;28;20059;-75
2021/09/29 06:24:02;;;;;;;52.42;38.33;;;435.90;2355.20;;;;;;5055095;28;20558;-75
2021/09/29 06:26:28;;;;;;;46.95;35.30;;;435.90;2355.20;;;;;;5048502;28;20068;-75
2021/09/29 06:28:54;;;;;;;44.63;31.75;;;435.90;2355.20;;;;;;5064236;28;20049;-75
2021/09/29 06:31:20;;;;;;;33.58;23.10;;;436.00;2355.20;;;;;;5067553;28;20044;-76
2021/09/29 06:33:49;;;;;;;29.48;20.08;;;436.10;2355.20;;;;;;5050290;28;20471;-75
2021/09/29 06:36:15;;;;;;;24.92;16.60;;;436.10;2355.20;;;;;;5064359;28;20025;-76
2021/09/29 06:38:41;;;;;;;19.75;12.13;;;460.80;2380.80;;;;;;5054032;28;20108;-76
2021/09/29 06:41:07;;;;;;;16.05;10.52;;;436.10;2355.20;;;;;;5053095;28;20083;-76
2021/09/29 06:43:33;;;;;;;14.52;10.25;;;436.10;2355.20;;;;;;5046197;28;20448;-76
2021/09/29 06:45:58;;;;;;;23.40;12.43;;;436.10;2355.20;;;;;;5063288;28;20387;-76
2021/09/29 06:48:24;;;;;;;17.42;12.32;;;436.10;2355.20;;;;;;5051595;28;20043;-76
2021/09/29 06:50:50;;;;;;;26.98;18.45;;;436.10;2355.20;;;;;;5056246;28;20522;-76
2021/09/29 06:53:18;;;;;;;26.20;18.95;;;436.00;2355.20;;;;;;5058606;28;20030;-76
2021/09/29 06:55:44;;;;;;;28.80;21.45;;;436.10;2355.20;;;;;;5060362;28;20041;-76
2021/09/29 06:58:09;;;;;;;25.27;19.73;;;436.10;2355.20;;;;;;5083149;28;20033;-75
2021/09/29 07:00:35;;;;;;;29.70;19.80;;;436.10;2355.20;;;;;;5063537;28;20052;-75
2021/09/29 07:03:01;;;;;;;26.55;18.88;;;436.10;2355.20;;;;;;5068804;28;20032;-75
2021/09/29 07:05:27;;;;;;;33.00;20.17;;;436.10;2355.20;;;;;;5077619;28;20037;-75
2021/09/29 07:07:52;;;;;;;28.45;19.33;;;460.80;2380.80;;;;;;5060620;28;20380;-75
2021/09/29 07:10:18;;;;;;;28.15;20.45;;;460.80;2380.80;;;;;;5053658;28;20053;-75
2021/09/29 07:12:44;;;;;;;31.75;21.80;;;460.90;2380.80;;;;;;5060857;28;20029;-75
2021/09/29 07:15:12;;;;;;;37.90;25.95;;;461.10;2380.80;;;;;;5048277;28;20037;-76
2021/09/29 07:17:37;;;;;;;35.10;26.27;;;461.30;2380.80;;;;;;5067827;28;20051;-75
2021/09/29 07:20:07;;;;;;;39.78;27.50;;;461.40;2380.80;;;;;;5054530;28;20555;-75
2021/09/29 07:22:33;;;;;;;47.15;28.48;;;461.50;2380.80;;;;;;5052466;28;20079;-75
2021/09/29 07:24:59;;;;;;;31.83;25.15;;;461.70;2380.80;;;;;;5054595;28;20048;-75
2021/09/29 07:27:24;;;;;;;25.40;18.92;;;486.40;2380.80;;;;;;5070081;28;20102;-76
2021/09/29 07:29:50;;;;;;;18.02;14.02;;;486.40;2380.80;;;;;;5063495;28;20463;-75
2021/09/29 07:32:16;;;;;;;19.88;12.32;;;486.40;2380.80;;;;;;5055912;28;20033;-75
2021/09/29 07:34:42;;;;;;;17.50;12.75;;;486.40;2380.80;;;;;;5063052;28;20044;-75
2021/09/29 07:37:08;;;;;;;19.70;10.35;;;486.60;2380.80;;;;;;5055406;28;20108;-75
2021/09/29 07:39:33;;;;;;;18.35;9.60;;;486.70;2380.80;;;;;;5038895;28;21482;-75
2021/09/29 07:41:59;;;;;;;16.52;11.20;;;486.70;2380.80;;;;;;5053328;28;20029;-75
2021/09/29 07:44:25;;;;;;;11.68;7.15;;;486.60;2380.80;;;;;;5054932;28;20167;-75
2021/09/29 07:46:51;;;;;;;8.55;6.65;;;486.60;2380.80;;;;;;5065007;28;20052;-76
2021/09/29 07:49:21;;;;;;;17.38;7.65;;;486.80;2380.80;;;;;;5060216;28;20064;-75
2021/09/29 07:51:48;;;;;;;9.82;6.70;;;486.90;2380.80;;;;;;5054394;28;20379;-75
2021/09/29 07:54:13;;;;;;;14.00;5.80;;;486.90;2380.80;;;;;;5064832;28;20356;-75
2021/09/29 07:56:39;;;;;;;12.55;7.68;;;487.00;2380.80;;;;;;5065603;28;20094;-75
2021/09/29 07:59:05;;;;;;;19.80;10.15;;;486.90;2380.80;;;;;;5053848;28;20060;-75
2021/09/29 08:01:30;;;;;;;22.35;14.73;;;487.00;2380.80;;;;;;5055555;28;20480;-75
2021/09/29 08:03:56;;;;;;;19.98;12.52;;;487.00;2380.80;;;;;;5063055;28;20040;-75
2021/09/29 08:06:22;;;;;;;18.83;10.82;;;486.90;2380.80;;;;;;5060542;28;20021;-75
2021/09/29 08:08:49;;;;;;;20.45;11.40;;;487.00;2380.80;;;;;;5053556;28;20384;-75
2021/09/29 08:11:16;;;;;;;32.75;10.52;;;487.00;2380.80;;;;;;5064602;28;20116;-75
2021/09/29 08:13:42;;;;;;;19.08;12.20;;;487.10;2380.80;;;;;;5053059;28;20074;-75
2021/09/29 08:16:08;;;;;;;18.05;13.07;;;487.10;2380.80;;;;;;5053931;28;20029;-75
2021/09/29 08:18:34;;;;;;;24.33;14.80;;;487.00;2380.80;;;;;;5052456;28;20024;-75
2021/09/29 08:21:01;;;;;;;22.42;12.80;;;487.10;2380.80;;;;;;5068653;28;20460;-75
2021/09/29 08:23:39;;;;;;;19.05;11.77;;;487.10;2380.80;;;;;;5053844;28;20052;-75
2021/09/29 08:34:00;;;;;;;27.35;14.77;;;512.10;2380.80;;;;;;5052349;28;20017;-75
2021/09/29 08:36:51;;;;;;;18.03;9.53;;;512.30;2380.80;;;;;;5049718;28;20506;-75
2021/09/29 08:39:24;;;;;;;11.13;6.32;;;512.30;2380.80;;;;;;5063239;28;20285;-75
2021/09/29 08:44:53;;;;;;;17.40;9.88;;;512.60;2380.80;;;;;;5011385;28;20169;-75
2021/09/29 08:55:14;;;;;;;12.50;6.20;;;512.70;2380.80;;;;;;5010754;28;20033;-75
2021/09/29 09:16:53;;;;;;;15.25;6.38;;;512.20;2380.80;;;;;;5024575;28;20064;-75
2021/09/29 09:19:29;;;;;;;16.10;5.75;;;512.20;2380.80;;;;;;5016780;28;20415;-75
2021/09/29 09:22:04;;;;;;;12.48;6.65;;;512.20;2380.80;;;;;;5051491;28;20040;-75
2021/09/29 09:24:32;;;;;;;12.43;7.10;;;512.20;2380.80;;;;;;5039040;28;20052;-75
2021/09/29 09:27:08;;;;;;;11.07;6.60;;;512.10;2380.80;;;;;;5052458;28;20021;-75
2021/09/29 09:29:52;;;;;;;11.88;7.88;;;512.20;2380.80;;;;;;5059044;28;20024;-75
2021/09/29 09:32:24;;;;;;;15.48;6.65;;;512.20;2380.80;;;;;;5058094;28;20091;-75
2021/09/29 09:35:19;;;;;;;13.57;8.65;;;512.00;2380.80;;;;;;5053250;28;20159;-75
2021/09/29 09:37:54;;;;;;;13.15;8.25;;;512.30;2380.80;;;;;;4973867;28;20030;-75
2021/09/29 09:40:21;;;;;;;18.58;6.45;;;512.30;2380.80;;;;;;4987475;28;20026;-75
2021/09/29 09:42:56;;;;;;;15.05;7.28;;;512.50;2380.80;;;;;;4990935;28;20041;-75
2021/09/29 09:45:42;;;;;;;16.97;9.47;;;537.60;2406.40;;;;;;4988808;28;20034;-75
2021/09/29 09:48:16;;;;;;;38.78;22.55;;;538.10;2406.40;;;;;;4989973;28;20529;-75
2021/09/29 09:50:42;;;;;;;17.83;9.88;;;563.20;2432.00;;;;;;4990818;28;20030;-75
2021/09/29 09:53:12;;;;;;;13.75;8.20;;;563.20;2432.00;;;;;;4990676;28;20117;-75
2021/09/29 09:55:38;;;;;;;12.20;8.85;;;563.60;2432.00;;;;;;4990373;28;20045;-75
2021/09/29 09:58:04;;;;;;;16.13;6.50;;;563.80;2432.00;;;;;;4973448;28;20038;-74
2021/09/29 10:00:32;;;;;;;11.15;5.72;;;563.80;2432.00;;;;;;4974275;28;20045;-75
2021/09/29 10:03:00;;;;;;;12.32;6.50;;;563.70;2432.00;;;;;;4989839;28;20069;-75
2021/09/29 10:05:28;;;;;;;13.25;6.10;;;563.70;2432.00;;;;;;4990582;28;20128;-74
2021/09/29 10:07:54;;;;;;;12.93;5.75;;;563.70;2432.00;;;;;;4990216;28;20030;-74
2021/09/29 10:27:11;;;;;;;11.38;5.80;;;538.00;2406.40;;;;;;5049509;28;20134;-75
2021/09/29 10:29:45;;;;;;;22.33;7.35;;;538.00;2406.40;;;;;;5062556;28;20058;-75
2021/09/29 10:35:04;;;;;;;12.70;5.10;;;538.00;2406.40;;;;;;5053165;28;20038;-76
2021/09/29 10:43:03;;;;;;;11.27;8.07;;;537.80;2406.40;;;;;;5052544;28;20035;-75
2021/09/29 10:45:40;;;;;;;14.98;6.30;;;538.00;2406.40;;;;;;5051198;28;20028;-75
2021/09/29 11:29:48;;;;;;;8.10;3.42;;;512.80;2380.80;;;;;;5036455;28;20541;-74
2021/09/29 11:35:18;;;;;;;10.23;4.65;;;512.60;2380.80;;;;;;4968506;28;20078;-74
2021/09/29 12:08:45;;;;;;;14.70;5.20;;;537.70;2406.40;;;;;;4970757;28;20053;-74
2021/09/29 12:11:19;;;;;;;8.43;3.72;;;538.00;2406.40;;;;;;4976368;28;20421;-73
2021/09/29 12:14:01;;;;;;;10.00;3.83;;;538.10;2406.40;;;;;;5054908;28;20028;-73
2021/09/29 12:16:35;;;;;;;14.38;6.00;;;538.20;2406.40;;;;;;5052130;28;20108;-74
2021/09/29 12:19:05;;;;;;;15.82;5.95;;;563.20;2432.00;;;;;;5051965;28;20044;-74
2021/09/29 12:22:07;;;;;;;10.88;6.18;;;563.40;2432.00;;;;;;5051909;28;20107;-74
2021/09/29 12:24:34;;;;;;;7.07;3.60;;;563.60;2432.00;;;;;;5055013;28;20041;-74
2021/09/29 12:27:02;;;;;;;12.15;3.05;;;563.50;2432.00;;;;;;5055856;28;20037;-74
2021/09/29 12:37:40;;;;;;;16.05;3.40;;;538.40;2406.40;;;;;;5063555;28;20024;-73
2021/09/29 12:40:07;;;;;;;10.00;3.92;;;538.50;2406.40;;;;;;5053212;28;20104;-73
2021/09/29 12:42:39;;;;;;;6.72;3.25;;;538.40;2406.40;;;;;;5067975;28;20450;-74
2021/09/29 12:45:06;;;;;;;15.02;6.70;;;538.40;2406.40;;;;;;5061420;28;20029;-73
2021/09/29 12:49:57;;;;;;;11.60;3.05;;;538.20;2406.40;;;;;;5044285;28;20017;-74
2021/09/29 12:52:33;;;;;;;12.95;4.10;;;538.00;2406.40;;;;;;5045098;28;20029;-73
2021/09/29 12:55:00;;;;;;;9.20;3.25;;;538.10;2406.40;;;;;;5063244;28;20038;-73
2021/09/29 12:57:30;;;;;;;13.70;3.83;;;538.10;2406.40;;;;;;5052252;28;20043;-73
2021/09/29 12:59:59;;;;;;;11.52;3.95;;;538.00;2406.40;;;;;;5058407;28;20071;-73
2021/09/29 13:02:26;;;;;;;10.20;3.08;;;538.00;2406.40;;;;;;5050936;28;20488;-73
2021/09/29 13:04:52;;;;;;;7.93;2.83;;;538.00;2406.40;;;;;;5069999;28;20080;-73
2021/09/29 13:07:18;;;;;;;6.10;3.47;;;537.90;2406.40;;;;;;5050835;28;20502;-73
2021/09/29 13:09:44;;;;;;;4.82;2.30;;;538.00;2406.40;;;;;;5053060;28;20036;-75
2021/09/29 13:12:10;;;;;;;8.70;3.88;;;538.20;2406.40;;;;;;5052484;28;20079;-73
2021/09/29 13:14:37;;;;;;;14.55;4.95;;;538.40;2406.40;;;;;;5052609;28;20029;-73
2021/09/29 13:17:05;;;;;;;12.98;4.90;;;538.40;2406.40;;;;;;5051879;28;20032;-73
2021/09/29 13:19:45;;;;;;;21.15;3.75;;;538.30;2406.40;;;;;;5052792;28;20070;-73
2021/09/29 13:22:19;;;;;;;14.98;5.80;;;538.30;2406.40;;;;;;5051200;28;20031;-75
2021/09/29 13:38:13;;;;;;;7.35;3.58;;;538.20;2406.40;;;;;;5019473;28;20043;-73
2021/09/29 13:40:41;;;;;;;10.68;3.83;;;538.40;2406.40;;;;;;5019689;28;20042;-73
2021/09/29 13:43:09;;;;;;;10.18;5.50;;;563.30;2432.00;;;;;;5015420;28;20068;-73
2021/09/29 13:45:35;;;;;;;9.85;3.20;;;563.70;2432.00;;;;;;5015281;28;20528;-73
2021/09/29 13:48:01;;;;;;;16.40;10.95;;;588.90;2432.00;;;;;;5014199;28;20042;-73
2021/09/29 13:50:28;;;;;;;12.43;5.03;;;589.60;2432.00;;;;;;5016921;28;20022;-73
2021/09/29 13:52:53;;;;;;;18.30;9.85;;;589.40;2432.00;;;;;;5015024;28;20030;-73
2021/09/29 13:55:21;;;;;;;9.18;3.95;;;589.50;2432.00;;;;;;5014319;28;20045;-73
2021/09/29 14:30:27;;;;;;;15.30;5.72;;;589.10;2432.00;;;;;;5051588;28;20083;-73
2021/09/29 14:33:02;;;;;;;10.88;7.32;;;589.10;2432.00;;;;;;5051097;28;20071;-73
2021/09/29 14:35:28;;;;;;;11.25;7.13;;;589.00;2432.00;;;;;;5051124;28;20025;-73
2021/09/29 14:37:55;;;;;;;22.73;13.63;;;589.10;2432.00;;;;;;5051353;28;20021;-73
2021/09/29 14:40:23;;;;;;;13.23;6.03;;;589.20;2432.00;;;;;;5050375;28;20057;-73
2021/09/29 14:42:50;;;;;;;31.70;18.15;;;589.40;2432.00;;;;;;5050628;28;20059;-74
2021/09/29 14:45:19;;;;;;;24.63;14.13;;;589.20;2432.00;;;;;;5050682;28;20914;-73
2021/09/29 14:47:46;;;;;;;6.47;2.70;;;589.10;2432.00;;;;;;5040512;28;20029;-73
2021/09/29 14:50:12;;;;;;;5.70;3.60;;;564.00;2432.00;;;;;;5049384;28;20484;-73
2021/09/29 14:52:38;;;;;;;7.70;3.47;;;564.10;2432.00;;;;;;5041212;28;20021;-73
2021/09/29 14:55:04;;;;;;;8.32;5.25;;;563.80;2432.00;;;;;;5057236;28;20060;-73
2021/09/29 14:57:30;;;;;;;11.18;6.78;;;538.50;2406.40;;;;;;5066762;28;20082;-73
2021/09/29 14:59:56;;;;;;;10.60;6.57;;;538.30;2406.40;;;;;;5051924;28;20492;-74
2021/09/29 15:02:22;;;;;;;21.58;12.43;;;538.30;2406.40;;;;;;5051088;28;20032;-73
2021/09/29 15:04:47;;;;;;;6.82;4.78;;;538.20;2406.40;;;;;;5049620;28;20506;-73
2021/09/29 15:07:14;;;;;;;22.35;16.17;;;537.80;2406.40;;;;;;5051165;28;20032;-73
2021/09/29 15:09:39;;;;;;;6.60;4.65;;;512.80;2380.80;;;;;;5048907;28;20036;-75
2021/09/29 15:12:07;;;;;;;9.50;5.75;;;512.40;2380.80;;;;;;5048759;28;20433;-73
2021/09/29 15:15:39;;;;;;;7.68;4.55;;;512.30;2380.80;;;;;;5050870;28;20044;-73
2021/09/29 15:17:36;;;;;;;10.10;5.57;;;512.20;2380.80;;;;;;5043547;28;20033;-73
2021/09/29 15:20:09;;;;;;;15.48;7.57;;;512.00;2380.80;;;;;;5052623;28;20746;-73